Terminal Aerodrome Forecast
Issued by NWS Grand Forks, ND

Home | Current Version | Previous Version | Graphics & Text | Print | Product List | Glossary On
Versions: 1 2 3 4 5 6 7 8 9 10 11 12
713
FTUS43 KFGF 261115 AAA
TAFFAR
TAF AMD
KFAR 261115Z 2611/2706 06012KT P6SM OVC015
     FM261800 06013KT P6SM OVC025
     FM262200 08011KT P6SM OVC035=

USA.gov is the U.S. government's official web portal to all federal, state and local government web resources and services.